Time;durP1;ratioP1;P1;durP2;ratioP2;P2;SDS_P1;SDS_P2;PMS_P1;PMS_P2;Temp;Humidity;BMP_temperature;BMP_pressure;BME280_temperature;BME280_humidity;BME280_pressure;Samples;Min_cycle;Max_cycle;Signal;HPM_P1;HPM_P2
2022/01/17 00:01:15;;;;;;;9.87;2.40;;;;;;;;;;4992286;28;20316;-74
2022/01/17 00:03:42;;;;;;;10.67;2.30;;;;;;;;;;4976899;28;20655;-71
2022/01/17 00:06:08;;;;;;;8.83;1.90;;;;;;;;;;4973068;28;20226;-75
2022/01/17 00:08:41;;;;;;;6.80;2.00;;;;;;;;;;4973917;28;20222;-72
2022/01/17 00:11:07;;;;;;;5.70;1.70;;;;;;;;;;4976756;28;20225;-75
2022/01/17 00:13:32;;;;;;;10.03;1.90;;;;;;;;;;4960266;28;20303;-72
2022/01/17 00:16:05;;;;;;;5.07;1.70;;;;;;;;;;4973522;28;20758;-73
2022/01/17 00:19:04;;;;;;;7.43;1.70;;;;;;;;;;4973089;28;20225;-74
2022/01/17 00:21:21;;;;;;;13.53;2.23;;;;;;;;;;4990416;28;20269;-72
2022/01/17 00:23:49;;;;;;;12.90;2.27;;;;;;;;;;4975656;28;20782;-73
2022/01/17 00:26:14;;;;;;;6.40;1.93;;;;;;;;;;4956745;28;20222;-74
2022/01/17 00:28:40;;;;;;;8.93;2.20;;;;;;;;;;4975768;28;20809;-74
2022/01/17 00:31:08;;;;;;;7.57;1.47;;;;;;;;;;4961098;28;20231;-74
2022/01/17 00:33:36;;;;;;;7.97;1.93;;;;;;;;;;4975788;28;20312;-74
2022/01/17 00:36:02;;;;;;;11.67;1.90;;;;;;;;;;4992820;28;20240;-74
2022/01/17 00:38:28;;;;;;;10.83;2.10;;;;;;;;;;4975769;28;20267;-74
2022/01/17 00:40:55;;;;;;;8.00;1.80;;;;;;;;;;4976342;28;20642;-74
2022/01/17 00:43:23;;;;;;;12.17;2.07;;;;;;;;;;4991133;28;20643;-74
2022/01/17 00:45:51;;;;;;;7.43;2.40;;;;;;;;;;4976303;28;20228;-73
2022/01/17 00:48:18;;;;;;;10.80;1.90;;;;;;;;;;4975686;28;20707;-73
2022/01/17 00:50:47;;;;;;;7.07;1.50;;;;;;;;;;4976270;28;20667;-74
2022/01/17 00:53:15;;;;;;;8.17;1.80;;;;;;;;;;4959542;28;20233;-74
2022/01/17 00:55:41;;;;;;;9.33;2.30;;;;;;;;;;4961062;28;20222;-74
2022/01/17 00:58:09;;;;;;;12.00;1.87;;;;;;;;;;4993121;28;20722;-74
2022/01/17 01:00:35;;;;;;;8.70;2.13;;;;;;;;;;4943947;28;20229;-74
2022/01/17 01:03:05;;;;;;;9.70;1.90;;;;;;;;;;4959593;28;20228;-74
2022/01/17 01:05:31;;;;;;;9.27;2.20;;;;;;;;;;4976550;28;20658;-73
2022/01/17 01:07:57;;;;;;;11.23;1.87;;;;;;;;;;4959695;28;20221;-74
2022/01/17 01:10:22;;;;;;;9.83;2.40;;;;;;;;;;4975591;28;20607;-73
2022/01/17 01:12:51;;;;;;;8.27;2.00;;;;;;;;;;4990900;28;20271;-74
2022/01/17 01:15:34;;;;;;;10.67;2.23;;;;;;;;;;5008378;28;20225;-74
2022/01/17 01:18:13;;;;;;;12.43;2.80;;;;;;;;;;4954058;28;20939;-74
2022/01/17 01:28:36;;;;;;;7.93;2.77;;;;;;;;;;4991442;28;20902;-74
2022/01/17 01:31:07;;;;;;;13.13;2.40;;;;;;;;;;4975103;28;20226;-74
2022/01/17 01:33:39;;;;;;;9.37;2.47;;;;;;;;;;4991647;28;20304;-74
2022/01/17 01:36:20;;;;;;;8.23;2.40;;;;;;;;;;4975398;28;20245;-74
2022/01/17 01:38:50;;;;;;;13.30;2.63;;;;;;;;;;4960161;28;20304;-74
2022/01/17 01:41:16;;;;;;;9.03;2.30;;;;;;;;;;4975414;28;20244;-74
2022/01/17 01:43:44;;;;;;;12.37;2.53;;;;;;;;;;4987830;28;20247;-74
2022/01/17 01:46:18;;;;;;;11.03;2.70;;;;;;;;;;4961698;28;20210;-74
2022/01/17 01:48:49;;;;;;;11.50;2.50;;;;;;;;;;4971849;28;20308;-74
2022/01/17 01:51:20;;;;;;;15.43;2.90;;;;;;;;;;4959778;28;20213;-74
2022/01/17 01:53:48;;;;;;;10.10;2.20;;;;;;;;;;4990443;28;20229;-74
2022/01/17 01:56:13;;;;;;;12.07;2.67;;;;;;;;;;4955130;28;20242;-74
2022/01/17 01:58:42;;;;;;;11.73;2.80;;;;;;;;;;4955619;28;20340;-74
2022/01/17 02:01:10;;;;;;;9.93;2.37;;;;;;;;;;4973372;28;20767;-74
2022/01/17 02:03:36;;;;;;;8.27;1.93;;;;;;;;;;4990722;28;20936;-74
2022/01/17 02:06:01;;;;;;;11.70;2.93;;;;;;;;;;4990623;28;20313;-74
2022/01/17 02:08:30;;;;;;;12.30;2.53;;;;;;;;;;4974348;28;20324;-74
2022/01/17 02:10:58;;;;;;;12.57;2.33;;;;;;;;;;4975094;28;20221;-74
2022/01/17 02:13:27;;;;;;;13.70;2.50;;;;;;;;;;4989878;28;20209;-74
2022/01/17 02:16:03;;;;;;;7.90;1.90;;;;;;;;;;4974745;28;20228;-74
2022/01/17 02:18:31;;;;;;;10.60;2.37;;;;;;;;;;4975012;28;20706;-74
2022/01/17 02:23:47;;;;;;;10.50;2.10;;;;;;;;;;4959790;28;20851;-74
2022/01/17 02:26:15;;;;;;;11.33;2.17;;;;;;;;;;4970262;28;20312;-74
2022/01/17 02:28:48;;;;;;;9.97;2.67;;;;;;;;;;4973998;28;20273;-74
2022/01/17 02:31:14;;;;;;;11.20;3.00;;;;;;;;;;4973836;28;20729;-74
2022/01/17 02:33:39;;;;;;;10.53;2.57;;;;;;;;;;4973694;28;20217;-74
2022/01/17 02:36:07;;;;;;;7.93;2.00;;;;;;;;;;4974081;28;20315;-73
2022/01/17 02:38:33;;;;;;;11.33;2.47;;;;;;;;;;4974301;28;20214;-73
2022/01/17 02:41:03;;;;;;;11.80;2.60;;;;;;;;;;4974636;28;20241;-74
2022/01/17 02:43:30;;;;;;;11.77;2.67;;;;;;;;;;4957567;28;20735;-74
2022/01/17 02:48:36;;;;;;;10.97;2.83;;;;;;;;;;4994023;28;20659;-74
2022/01/17 02:51:02;;;;;;;12.53;2.83;;;;;;;;;;4978099;28;20258;-74
2022/01/17 02:53:30;;;;;;;13.13;2.37;;;;;;;;;;4998556;28;20217;-74
2022/01/17 02:56:03;;;;;;;13.03;3.07;;;;;;;;;;4960540;28;20226;-74
2022/01/17 02:58:32;;;;;;;11.40;2.20;;;;;;;;;;4971002;28;20655;-74
2022/01/17 03:00:58;;;;;;;14.27;2.53;;;;;;;;;;4987235;28;20735;-73
2022/01/17 03:03:25;;;;;;;13.50;2.73;;;;;;;;;;4983095;28;20309;-74
2022/01/17 03:05:52;;;;;;;9.80;2.47;;;;;;;;;;4958466;28;20225;-74
2022/01/17 03:08:20;;;;;;;8.43;2.30;;;;;;;;;;4989399;28;20275;-73
2022/01/17 03:10:51;;;;;;;9.47;2.40;;;;;;;;;;4974233;28;20304;-73
2022/01/17 03:13:31;;;;;;;13.63;2.80;;;;;;;;;;4972514;28;20646;-73
2022/01/17 03:16:00;;;;;;;10.17;2.33;;;;;;;;;;4963969;28;20218;-74
2022/01/17 03:18:30;;;;;;;11.80;2.33;;;;;;;;;;4980700;28;20225;-72
2022/01/17 03:20:57;;;;;;;8.90;2.40;;;;;;;;;;4957083;28;20233;-73
2022/01/17 03:23:28;;;;;;;6.23;1.73;;;;;;;;;;4990252;28;20222;-73
2022/01/17 03:25:56;;;;;;;12.33;2.50;;;;;;;;;;4973844;28;20221;-74
2022/01/17 03:28:26;;;;;;;7.80;2.10;;;;;;;;;;4954780;28;20245;-74
2022/01/17 03:30:53;;;;;;;8.13;2.43;;;;;;;;;;4970041;28;20253;-74
2022/01/17 03:33:19;;;;;;;13.27;2.47;;;;;;;;;;4988916;28;20731;-74
2022/01/17 03:35:44;;;;;;;12.13;2.97;;;;;;;;;;4990511;28;20222;-73
2022/01/17 03:38:16;;;;;;;15.87;2.70;;;;;;;;;;4989177;28;20289;-74
2022/01/17 03:40:45;;;;;;;12.40;2.10;;;;;;;;;;4989537;28;20611;-74
2022/01/17 03:43:13;;;;;;;10.33;2.30;;;;;;;;;;5004802;28;20226;-74
2022/01/17 03:45:41;;;;;;;12.60;2.57;;;;;;;;;;4973297;28;20230;-74
2022/01/17 03:48:08;;;;;;;13.00;2.60;;;;;;;;;;4989402;28;20309;-74
2022/01/17 03:50:36;;;;;;;9.60;2.40;;;;;;;;;;4989266;28;20245;-74
2022/01/17 03:53:04;;;;;;;9.77;3.87;;;;;;;;;;4973025;28;21056;-74
2022/01/17 03:55:32;;;;;;;9.77;2.60;;;;;;;;;;4972816;28;20229;-74
2022/01/17 03:57:58;;;;;;;7.53;2.20;;;;;;;;;;4990730;28;20304;-74
2022/01/17 04:00:29;;;;;;;12.13;2.80;;;;;;;;;;4956306;28;20268;-73
2022/01/17 04:02:56;;;;;;;13.47;2.67;;;;;;;;;;4976317;28;20229;-75
2022/01/17 04:05:25;;;;;;;15.63;2.33;;;;;;;;;;4992372;28;20304;-73
2022/01/17 04:07:53;;;;;;;11.07;2.67;;;;;;;;;;4993699;28;20613;-73
2022/01/17 04:10:21;;;;;;;10.80;2.60;;;;;;;;;;4974541;28;20242;-74
2022/01/17 04:12:53;;;;;;;11.00;2.40;;;;;;;;;;4973057;28;20305;-74
2022/01/17 04:15:21;;;;;;;11.30;2.60;;;;;;;;;;4976485;28;20796;-73
2022/01/17 04:17:49;;;;;;;12.27;2.60;;;;;;;;;;4992688;28;20217;-73
2022/01/17 04:20:26;;;;;;;12.93;3.27;;;;;;;;;;4992246;28;20833;-73
2022/01/17 04:22:53;;;;;;;10.27;2.80;;;;;;;;;;4977548;28;20217;-73
2022/01/17 04:25:19;;;;;;;13.23;2.80;;;;;;;;;;4976181;28;20226;-73
2022/01/17 04:27:49;;;;;;;10.77;2.80;;;;;;;;;;4957561;28;20712;-73
2022/01/17 04:30:16;;;;;;;12.47;2.80;;;;;;;;;;4976594;28;20622;-73
2022/01/17 04:32:42;;;;;;;13.63;2.83;;;;;;;;;;4958138;28;20210;-74
2022/01/17 04:35:09;;;;;;;13.10;2.77;;;;;;;;;;4962864;28;20238;-73
2022/01/17 04:37:34;;;;;;;10.63;2.83;;;;;;;;;;4975861;28;20311;-73
2022/01/17 04:40:00;;;;;;;9.60;2.37;;;;;;;;;;5003901;28;20308;-72
2022/01/17 04:42:28;;;;;;;10.37;2.47;;;;;;;;;;4992071;28;20646;-73
2022/01/17 04:45:17;;;;;;;9.77;3.13;;;;;;;;;;4973078;28;20726;-73
2022/01/17 04:47:48;;;;;;;11.77;2.40;;;;;;;;;;4972716;28;20762;-74
2022/01/17 04:50:21;;;;;;;9.37;2.47;;;;;;;;;;4960193;28;20237;-73
2022/01/17 04:52:49;;;;;;;9.23;2.33;;;;;;;;;;4975712;28;20217;-72
2022/01/17 04:55:15;;;;;;;16.77;2.73;;;;;;;;;;4988169;28;20236;-73
2022/01/17 04:57:46;;;;;;;10.87;2.60;;;;;;;;;;4974536;28;20653;-74
2022/01/17 05:00:13;;;;;;;9.47;2.17;;;;;;;;;;5006043;28;20256;-73
2022/01/17 05:02:39;;;;;;;10.07;2.43;;;;;;;;;;4974985;28;20225;-74
2022/01/17 05:05:07;;;;;;;7.63;2.33;;;;;;;;;;4952647;28;20230;-74
2022/01/17 05:07:36;;;;;;;8.43;2.47;;;;;;;;;;4956055;28;20218;-73
2022/01/17 05:10:03;;;;;;;16.13;2.97;;;;;;;;;;4976569;28;20218;-74
2022/01/17 05:12:29;;;;;;;10.83;2.90;;;;;;;;;;4958629;28;20225;-74
2022/01/17 05:14:59;;;;;;;8.30;1.90;;;;;;;;;;4990029;28;20271;-74
2022/01/17 05:19:59;;;;;;;13.07;2.30;;;;;;;;;;4991895;28;20283;-73
2022/01/17 05:22:32;;;;;;;11.50;2.17;;;;;;;;;;4974774;28;20213;-74
2022/01/17 05:25:03;;;;;;;9.53;2.40;;;;;;;;;;4972260;28;20222;-73
2022/01/17 05:27:31;;;;;;;14.70;3.07;;;;;;;;;;4960068;28;20221;-74
2022/01/17 05:30:01;;;;;;;9.77;2.47;;;;;;;;;;4986768;28;20616;-74
2022/01/17 05:32:31;;;;;;;12.97;3.10;;;;;;;;;;5007599;28;20241;-74
2022/01/17 05:34:57;;;;;;;12.90;2.50;;;;;;;;;;4957887;28;20229;-75
2022/01/17 05:37:25;;;;;;;9.27;2.60;;;;;;;;;;4988738;28;20225;-74
2022/01/17 05:39:51;;;;;;;10.00;2.50;;;;;;;;;;4975422;28;20261;-74
2022/01/17 05:42:20;;;;;;;10.53;2.67;;;;;;;;;;5008259;28;20312;-73
2022/01/17 05:44:46;;;;;;;8.73;2.43;;;;;;;;;;5008583;28;20225;-75
2022/01/17 05:47:12;;;;;;;11.63;2.40;;;;;;;;;;4990509;28;20765;-74
2022/01/17 05:49:38;;;;;;;7.77;2.43;;;;;;;;;;4991919;28;20245;-74
2022/01/17 05:52:08;;;;;;;12.27;2.87;;;;;;;;;;4990649;28;20229;-75
2022/01/17 05:54:36;;;;;;;11.20;3.37;;;;;;;;;;4975286;28;20279;-74
2022/01/17 05:57:04;;;;;;;12.90;3.27;;;;;;;;;;4958090;28;20220;-74
2022/01/17 05:59:32;;;;;;;13.13;2.83;;;;;;;;;;4991190;28;20802;-74
2022/01/17 06:02:04;;;;;;;12.87;2.57;;;;;;;;;;4974533;28;20646;-74
2022/01/17 06:04:31;;;;;;;10.83;2.90;;;;;;;;;;4966794;28;20225;-74
2022/01/17 06:06:59;;;;;;;12.37;4.20;;;;;;;;;;4986894;28;20209;-74
2022/01/17 06:09:24;;;;;;;11.43;2.93;;;;;;;;;;5000841;28;20223;-74
2022/01/17 06:11:52;;;;;;;13.67;3.23;;;;;;;;;;4991856;28;20221;-73
2022/01/17 06:14:21;;;;;;;6.27;2.60;;;;;;;;;;4943834;28;20217;-73
2022/01/17 06:16:49;;;;;;;11.00;2.70;;;;;;;;;;4986870;28;20218;-72
2022/01/17 06:19:19;;;;;;;9.13;2.93;;;;;;;;;;4972767;28;20645;-73
2022/01/17 06:21:45;;;;;;;13.30;3.47;;;;;;;;;;4997564;28;20371;-74
2022/01/17 06:24:14;;;;;;;13.83;3.20;;;;;;;;;;4964035;28;20727;-73
2022/01/17 06:26:44;;;;;;;12.73;2.97;;;;;;;;;;4983236;28;20309;-72
2022/01/17 06:29:11;;;;;;;12.83;3.27;;;;;;;;;;4958724;28;20229;-73
2022/01/17 06:31:39;;;;;;;11.07;3.00;;;;;;;;;;4970468;28;20221;-72
2022/01/17 06:34:04;;;;;;;10.57;3.43;;;;;;;;;;4977486;28;20770;-72
2022/01/17 06:36:32;;;;;;;13.63;3.37;;;;;;;;;;4954579;28;20229;-72
2022/01/17 06:39:00;;;;;;;8.30;2.93;;;;;;;;;;4996911;28;20218;-72
2022/01/17 06:41:27;;;;;;;16.10;3.77;;;;;;;;;;4980941;28;20229;-72
2022/01/17 06:43:59;;;;;;;10.20;2.97;;;;;;;;;;4974445;28;20225;-72
2022/01/17 06:46:29;;;;;;;13.23;2.97;;;;;;;;;;4974023;28;20221;-72
2022/01/17 06:48:59;;;;;;;9.20;3.30;;;;;;;;;;4984598;28;20250;-74
2022/01/17 06:51:28;;;;;;;5.37;2.40;;;;;;;;;;4972482;28;21032;-73
2022/01/17 06:53:56;;;;;;;10.10;2.77;;;;;;;;;;4987521;28;20304;-71
2022/01/17 06:56:22;;;;;;;14.23;3.30;;;;;;;;;;4973933;28;20229;-72
2022/01/17 06:58:50;;;;;;;7.67;3.00;;;;;;;;;;4969942;28;20214;-72
2022/01/17 07:01:16;;;;;;;10.90;3.50;;;;;;;;;;4966840;28;20230;-72
2022/01/17 07:03:42;;;;;;;11.53;3.60;;;;;;;;;;4954344;28;20310;-73
2022/01/17 07:06:07;;;;;;;12.50;3.43;;;;;;;;;;4974430;28;20237;-73
2022/01/17 07:08:33;;;;;;;12.33;3.47;;;;;;;;;;4971354;28;20249;-72
2022/01/17 07:11:03;;;;;;;8.13;3.60;;;;;;;;;;5005469;28;20271;-74
2022/01/17 07:13:31;;;;;;;16.00;3.77;;;;;;;;;;4966051;28;20225;-72
2022/01/17 07:15:57;;;;;;;10.27;3.80;;;;;;;;;;4958966;28;20241;-73
2022/01/17 07:18:22;;;;;;;8.83;3.47;;;;;;;;;;4988172;28;20238;-73
2022/01/17 07:20:51;;;;;;;10.53;3.27;;;;;;;;;;4974945;28;20236;-72
2022/01/17 07:23:16;;;;;;;7.10;3.03;;;;;;;;;;4990494;28;20312;-72
2022/01/17 07:25:42;;;;;;;13.27;3.80;;;;;;;;;;4975486;28;20226;-72
2022/01/17 07:28:10;;;;;;;8.93;3.43;;;;;;;;;;4943483;28;20316;-73
2022/01/17 07:30:40;;;;;;;10.37;3.60;;;;;;;;;;4975383;28;20251;-71
2022/01/17 07:33:06;;;;;;;9.07;3.67;;;;;;;;;;4952752;28;20683;-73
2022/01/17 07:35:32;;;;;;;9.53;3.33;;;;;;;;;;4988646;28;20245;-72
2022/01/17 07:37:58;;;;;;;11.17;4.03;;;;;;;;;;4961849;28;20233;-73
2022/01/17 07:40:24;;;;;;;11.90;4.27;;;;;;;;;;4975113;28;20228;-73
2022/01/17 07:42:49;;;;;;;9.73;3.70;;;;;;;;;;4995362;28;20225;-76
2022/01/17 07:45:20;;;;;;;9.33;4.20;;;;;;;;;;4994160;28;20253;-75
2022/01/17 07:50:21;;;;;;;10.30;3.80;;;;;;;;;;4961544;28;20236;-73
2022/01/17 07:52:49;;;;;;;13.13;4.07;;;;;;;;;;4958116;28;20226;-73
2022/01/17 07:55:17;;;;;;;5.67;3.57;;;;;;;;;;4974076;28;20284;-73
2022/01/17 07:57:46;;;;;;;10.67;4.07;;;;;;;;;;4977822;28;20274;-73
2022/01/17 08:00:18;;;;;;;8.30;4.13;;;;;;;;;;4993785;28;20291;-72
2022/01/17 08:02:53;;;;;;;9.07;4.03;;;;;;;;;;4958477;28;20250;-73
2022/01/17 08:05:19;;;;;;;7.93;3.97;;;;;;;;;;4989089;28;20766;-73
2022/01/17 08:07:44;;;;;;;7.60;4.10;;;;;;;;;;4994000;28;20213;-73
2022/01/17 08:10:13;;;;;;;9.53;3.90;;;;;;;;;;4994158;28;20589;-73
2022/01/17 08:12:42;;;;;;;10.50;4.63;;;;;;;;;;4986090;28;20738;-74
2022/01/17 08:15:12;;;;;;;9.60;4.27;;;;;;;;;;4989979;28;20281;-72
2022/01/17 08:17:38;;;;;;;11.70;4.30;;;;;;;;;;4989171;28;20221;-72
2022/01/17 08:20:09;;;;;;;8.53;3.57;;;;;;;;;;4977711;28;20258;-73
2022/01/17 08:22:36;;;;;;;9.23;3.10;;;;;;;;;;4978140;28;20300;-72
2022/01/17 08:25:02;;;;;;;8.83;3.43;;;;;;;;;;4977866;28;20236;-74
2022/01/17 08:27:30;;;;;;;8.33;3.30;;;;;;;;;;4994047;28;20670;-74
2022/01/17 08:30:00;;;;;;;7.27;3.13;;;;;;;;;;4961013;28;20224;-72
2022/01/17 08:32:29;;;;;;;9.53;3.03;;;;;;;;;;4984483;28;20222;-72
2022/01/17 08:34:56;;;;;;;6.40;2.83;;;;;;;;;;4975705;28;20229;-72
2022/01/17 08:37:23;;;;;;;8.50;3.20;;;;;;;;;;4975570;28;20225;-73
2022/01/17 08:39:48;;;;;;;6.77;3.10;;;;;;;;;;4971841;28;20707;-73
2022/01/17 08:42:14;;;;;;;7.63;3.00;;;;;;;;;;4976897;28;20249;-73
2022/01/17 08:44:49;;;;;;;10.03;3.73;;;;;;;;;;4945075;28;20623;-72
2022/01/17 08:47:16;;;;;;;6.90;3.00;;;;;;;;;;4927997;28;20226;-73
2022/01/17 08:49:44;;;;;;;10.40;3.30;;;;;;;;;;4990893;28;20214;-73
2022/01/17 08:52:15;;;;;;;8.47;3.23;;;;;;;;;;4975843;28;20225;-73
2022/01/17 08:54:44;;;;;;;9.90;3.17;;;;;;;;;;4975801;28;20252;-76
2022/01/17 08:57:09;;;;;;;11.03;3.73;;;;;;;;;;4988711;28;20235;-73
2022/01/17 08:59:35;;;;;;;12.37;3.43;;;;;;;;;;4963156;28;20226;-74
2022/01/17 09:02:01;;;;;;;8.83;3.33;;;;;;;;;;4957693;28;20234;-74
2022/01/17 09:04:29;;;;;;;12.07;3.60;;;;;;;;;;4954449;28;20306;-73
2022/01/17 09:06:57;;;;;;;8.30;3.17;;;;;;;;;;4979516;28;20708;-74
2022/01/17 09:09:24;;;;;;;10.07;3.00;;;;;;;;;;4999159;28;20256;-73
2022/01/17 09:11:50;;;;;;;6.97;2.90;;;;;;;;;;4956649;28;20325;-72
2022/01/17 09:14:16;;;;;;;10.77;3.60;;;;;;;;;;4963798;28;20720;-73
2022/01/17 09:16:41;;;;;;;12.13;4.07;;;;;;;;;;4972852;28;20280;-74
2022/01/17 09:19:08;;;;;;;10.10;3.37;;;;;;;;;;4977201;28;20676;-73
2022/01/17 09:21:33;;;;;;;14.77;3.13;;;;;;;;;;4960120;28;20256;-73
2022/01/17 09:23:59;;;;;;;11.10;2.93;;;;;;;;;;4976679;28;20233;-74
2022/01/17 09:26:25;;;;;;;14.47;3.40;;;;;;;;;;4993674;28;20222;-73
2022/01/17 09:28:54;;;;;;;14.83;4.10;;;;;;;;;;4972982;28;20230;-74
2022/01/17 09:31:22;;;;;;;13.43;3.40;;;;;;;;;;4988734;28;20252;-73
2022/01/17 09:33:48;;;;;;;15.93;3.60;;;;;;;;;;4973154;28;20225;-73
2022/01/17 09:36:18;;;;;;;17.57;3.87;;;;;;;;;;4975894;28;20287;-73
2022/01/17 09:38:44;;;;;;;14.87;3.63;;;;;;;;;;4991986;28;20226;-74
2022/01/17 09:41:10;;;;;;;16.40;3.80;;;;;;;;;;4964405;28;20237;-73
2022/01/17 09:43:36;;;;;;;17.33;3.80;;;;;;;;;;4991399;28;20255;-73
2022/01/17 09:46:10;;;;;;;24.20;4.77;;;;;;;;;;4940787;28;20222;-72
2022/01/17 09:48:47;;;;;;;18.43;3.83;;;;;;;;;;4976336;28;20221;-73
2022/01/17 09:51:18;;;;;;;20.63;4.73;;;;;;;;;;4990942;28;20247;-73
2022/01/17 09:53:44;;;;;;;23.87;4.97;;;;;;;;;;4989618;28;20730;-75
2022/01/17 09:56:12;;;;;;;17.17;3.90;;;;;;;;;;4972944;28;20233;-73
2022/01/17 09:58:39;;;;;;;18.83;4.33;;;;;;;;;;4975438;28;20304;-75
2022/01/17 10:01:07;;;;;;;23.97;4.80;;;;;;;;;;4955856;28;20779;-73
2022/01/17 10:03:37;;;;;;;25.80;5.27;;;;;;;;;;4971935;28;20624;-74
2022/01/17 10:06:03;;;;;;;26.40;5.07;;;;;;;;;;4976226;28;20241;-74
2022/01/17 10:08:28;;;;;;;29.83;5.07;;;;;;;;;;4943879;28;20297;-73
2022/01/17 10:10:58;;;;;;;24.83;5.60;;;;;;;;;;4975843;28;20221;-73
2022/01/17 10:13:37;;;;;;;26.90;5.33;;;;;;;;;;4974435;28;20284;-73
2022/01/17 10:16:09;;;;;;;27.00;5.50;;;;;;;;;;4961067;28;20217;-73
2022/01/17 10:18:45;;;;;;;25.40;5.13;;;;;;;;;;4956224;28;20278;-73
2022/01/17 10:21:17;;;;;;;28.57;5.37;;;;;;;;;;4990129;28;20237;-73
2022/01/17 10:24:20;;;;;;;29.27;5.77;;;;;;;;;;4960278;28;20313;-72
2022/01/17 10:35:16;;;;;;;23.67;4.97;;;;;;;;;;4964490;28;20228;-76
2022/01/17 10:38:04;;;;;;;29.10;4.97;;;;;;;;;;4991680;28;20228;-74
2022/01/17 10:41:04;;;;;;;28.20;5.70;;;;;;;;;;4974069;28;20233;-73
2022/01/17 10:43:38;;;;;;;28.43;5.73;;;;;;;;;;4990438;28;20217;-72
2022/01/17 10:46:08;;;;;;;31.23;6.43;;;;;;;;;;4974424;28;20224;-74
2022/01/17 10:48:42;;;;;;;39.83;6.13;;;;;;;;;;4968628;28;20217;-72
2022/01/17 10:51:11;;;;;;;30.40;5.83;;;;;;;;;;4986475;28;20291;-74
2022/01/17 10:53:39;;;;;;;33.67;5.57;;;;;;;;;;4973789;28;20221;-72
2022/01/17 10:56:08;;;;;;;26.13;5.63;;;;;;;;;;4970888;28;20618;-74
2022/01/17 10:58:36;;;;;;;30.77;5.83;;;;;;;;;;5004664;28;20236;-74
2022/01/17 11:01:09;;;;;;;32.43;5.97;;;;;;;;;;4971026;28;20284;-74
2022/01/17 11:03:37;;;;;;;33.30;5.17;;;;;;;;;;4965674;28;20253;-74
2022/01/17 11:06:09;;;;;;;23.77;5.27;;;;;;;;;;4977635;28;20218;-74
2022/01/17 11:08:35;;;;;;;27.17;5.27;;;;;;;;;;4957717;28;20221;-75
2022/01/17 11:11:05;;;;;;;24.43;4.97;;;;;;;;;;4961973;28;20292;-74
2022/01/17 11:13:35;;;;;;;22.87;4.70;;;;;;;;;;4990471;28;20214;-75
2022/01/17 11:16:11;;;;;;;20.37;4.70;;;;;;;;;;4960931;28;20233;-74
2022/01/17 11:18:36;;;;;;;21.47;3.50;;;;;;;;;;4969265;28;20330;-74
2022/01/17 11:21:11;;;;;;;12.47;3.40;;;;;;;;;;4985179;28;20252;-74
2022/01/17 11:23:43;;;;;;;17.27;3.93;;;;;;;;;;4999711;28;20344;-73
2022/01/17 11:26:09;;;;;;;18.60;3.50;;;;;;;;;;4977772;28;20272;-74
2022/01/17 11:28:35;;;;;;;22.37;4.10;;;;;;;;;;4978177;28;20221;-73
2022/01/17 11:31:12;;;;;;;16.67;3.40;;;;;;;;;;4983446;28;20281;-74
2022/01/17 11:33:37;;;;;;;14.00;3.53;;;;;;;;;;4972451;28;20305;-74
2022/01/17 11:36:08;;;;;;;11.23;2.97;;;;;;;;;;4945196;28;20382;-73
2022/01/17 11:38:42;;;;;;;20.17;3.63;;;;;;;;;;4975823;28;20237;-74
2022/01/17 11:41:34;;;;;;;12.97;3.10;;;;;;;;;;4961734;28;20232;-74
2022/01/17 11:44:08;;;;;;;13.97;2.70;;;;;;;;;;4978639;28;20706;-74
2022/01/17 11:46:35;;;;;;;14.90;3.00;;;;;;;;;;4976082;28;20268;-73
2022/01/17 11:49:03;;;;;;;12.93;2.70;;;;;;;;;;4958686;28;20221;-72
2022/01/17 11:51:47;;;;;;;10.23;2.90;;;;;;;;;;4973467;28;20217;-73
2022/01/17 11:54:33;;;;;;;14.60;2.80;;;;;;;;;;4993376;28;20731;-72
2022/01/17 11:57:02;;;;;;;11.53;2.20;;;;;;;;;;4973072;28;20232;-72
2022/01/17 11:59:37;;;;;;;9.93;2.60;;;;;;;;;;4975994;28;20222;-72
2022/01/17 12:02:21;;;;;;;8.17;1.90;;;;;;;;;;4988821;28;20243;-73
2022/01/17 12:05:08;;;;;;;12.50;2.70;;;;;;;;;;5003585;28;20239;-73
2022/01/17 12:07:39;;;;;;;8.57;2.20;;;;;;;;;;4999474;28;20224;-74
2022/01/17 12:10:11;;;;;;;8.93;2.73;;;;;;;;;;5003161;28;20229;-72
2022/01/17 12:12:37;;;;;;;11.53;2.97;;;;;;;;;;4961198;28;20224;-72
2022/01/17 12:15:08;;;;;;;10.63;2.60;;;;;;;;;;4977014;28;20300;-73
2022/01/17 12:17:35;;;;;;;9.33;2.43;;;;;;;;;;4997232;28;20770;-72
2022/01/17 12:20:13;;;;;;;11.33;2.23;;;;;;;;;;4997030;28;20273;-73
2022/01/17 12:22:45;;;;;;;12.90;2.40;;;;;;;;;;4995485;28;20223;-73
2022/01/17 12:25:31;;;;;;;14.60;2.80;;;;;;;;;;5008660;28;20737;-74
2022/01/17 12:28:08;;;;;;;11.83;2.77;;;;;;;;;;4993318;28;20222;-73
2022/01/17 12:30:54;;;;;;;8.97;2.20;;;;;;;;;;4988422;28;20232;-73
2022/01/17 12:33:30;;;;;;;12.07;3.10;;;;;;;;;;4975032;28;20291;-73
2022/01/17 12:35:57;;;;;;;8.93;2.20;;;;;;;;;;4983614;28;20214;-73
2022/01/17 12:38:39;;;;;;;10.73;2.87;;;;;;;;;;4989037;28;20320;-73
2022/01/17 12:41:07;;;;;;;8.07;2.17;;;;;;;;;;4972201;28;20938;-73
2022/01/17 12:43:36;;;;;;;8.83;2.60;;;;;;;;;;4975808;28;20301;-75
2022/01/17 12:46:03;;;;;;;11.63;2.53;;;;;;;;;;4988642;28;20256;-73
2022/01/17 12:48:32;;;;;;;11.47;2.30;;;;;;;;;;4999260;28;20328;-73
2022/01/17 12:50:59;;;;;;;14.77;3.10;;;;;;;;;;4991117;28;20257;-73
2022/01/17 12:53:27;;;;;;;13.97;2.70;;;;;;;;;;4969527;28;20707;-72
2022/01/17 12:55:57;;;;;;;14.77;2.60;;;;;;;;;;4971820;28;20233;-73
2022/01/17 12:58:41;;;;;;;12.77;2.53;;;;;;;;;;4970270;28;20232;-73
2022/01/17 13:01:17;;;;;;;14.33;3.33;;;;;;;;;;4996259;28;20230;-73
2022/01/17 13:03:49;;;;;;;13.87;2.93;;;;;;;;;;4988759;28;20221;-73
2022/01/17 13:06:19;;;;;;;11.10;2.67;;;;;;;;;;4990888;28;20252;-73
2022/01/17 13:08:46;;;;;;;12.40;3.23;;;;;;;;;;4979829;28;20225;-74
2022/01/17 13:11:22;;;;;;;13.03;2.80;;;;;;;;;;4974691;28;20233;-73
2022/01/17 13:13:58;;;;;;;12.17;3.37;;;;;;;;;;4957326;28;20238;-73
2022/01/17 13:16:30;;;;;;;14.10;3.10;;;;;;;;;;4991680;28;20629;-73
2022/01/17 13:18:59;;;;;;;10.20;2.73;;;;;;;;;;4955564;28;20839;-73
2022/01/17 13:21:27;;;;;;;14.97;3.50;;;;;;;;;;4957777;28;20241;-73
2022/01/17 13:24:00;;;;;;;11.07;2.77;;;;;;;;;;4997188;28;20214;-72
2022/01/17 13:26:37;;;;;;;12.17;2.53;;;;;;;;;;4988481;28;20348;-73
2022/01/17 13:29:06;;;;;;;10.53;3.33;;;;;;;;;;4968000;28;20261;-73
2022/01/17 13:31:32;;;;;;;18.97;7.40;;;;;;;;;;4989757;28;20629;-73
2022/01/17 13:34:13;;;;;;;15.03;4.30;;;;;;;;;;4991118;28;20233;-74
2022/01/17 13:36:41;;;;;;;17.40;4.47;;;;;;;;;;4987321;28;20696;-72
2022/01/17 13:39:14;;;;;;;17.03;3.30;;;;;;;;;;4971964;28;20226;-73
2022/01/17 13:41:48;;;;;;;16.87;3.53;;;;;;;;;;4999019;28;20225;-73
2022/01/17 13:44:24;;;;;;;15.43;3.80;;;;;;;;;;4990943;28;20242;-72
2022/01/17 13:47:00;;;;;;;15.40;6.30;;;;;;;;;;4988249;28;20231;-72
2022/01/17 13:49:47;;;;;;;13.37;3.40;;;;;;;;;;4983900;28;20695;-73
2022/01/17 13:52:16;;;;;;;17.53;4.27;;;;;;;;;;4964712;28;20288;-73
2022/01/17 13:54:47;;;;;;;14.33;3.33;;;;;;;;;;4958592;28;20221;-72
2022/01/17 13:57:22;;;;;;;13.47;3.93;;;;;;;;;;4969507;28;20596;-72
2022/01/17 13:59:59;;;;;;;20.87;4.40;;;;;;;;;;4985696;28;20212;-71
2022/01/17 14:02:26;;;;;;;14.53;3.87;;;;;;;;;;4950934;28;20319;-70
2022/01/17 14:04:55;;;;;;;19.40;5.50;;;;;;;;;;4972628;28;20597;-73
2022/01/17 14:07:27;;;;;;;23.20;5.73;;;;;;;;;;4957231;28;20230;-72
2022/01/17 14:09:53;;;;;;;18.03;4.07;;;;;;;;;;4982191;28;20715;-72
2022/01/17 14:12:22;;;;;;;17.37;4.00;;;;;;;;;;4989196;28;20320;-72
2022/01/17 14:14:57;;;;;;;18.20;5.23;;;;;;;;;;4969151;28;20236;-74
2022/01/17 14:17:23;;;;;;;15.03;4.30;;;;;;;;;;4973805;28;20231;-73
2022/01/17 14:19:49;;;;;;;19.00;5.30;;;;;;;;;;4988126;28;21103;-72
2022/01/17 14:22:17;;;;;;;20.23;4.40;;;;;;;;;;4960281;28;20237;-72
2022/01/17 14:24:44;;;;;;;16.60;4.40;;;;;;;;;;4957674;28;20295;-75
2022/01/17 14:27:18;;;;;;;20.33;4.50;;;;;;;;;;4969803;28;20229;-72
2022/01/17 14:30:06;;;;;;;22.80;4.70;;;;;;;;;;4986791;28;20233;-74
2022/01/17 14:32:32;;;;;;;20.40;4.90;;;;;;;;;;4987179;28;20297;-73
2022/01/17 14:34:58;;;;;;;27.03;8.07;;;;;;;;;;4990258;28;20221;-73
2022/01/17 14:37:26;;;;;;;21.40;6.37;;;;;;;;;;4970328;28;20217;-72
2022/01/17 14:40:06;;;;;;;22.20;6.03;;;;;;;;;;4972034;28;20222;-72
2022/01/17 14:42:46;;;;;;;18.83;5.40;;;;;;;;;;4976605;28;20224;-72
2022/01/17 14:45:15;;;;;;;21.87;5.53;;;;;;;;;;4966399;28;20274;-72
2022/01/17 14:47:48;;;;;;;21.53;5.03;;;;;;;;;;4998195;28;20221;-75
2022/01/17 14:50:14;;;;;;;19.53;4.17;;;;;;;;;;4963032;28;20351;-73
2022/01/17 14:52:40;;;;;;;19.70;4.90;;;;;;;;;;4968617;28;20216;-72
2022/01/17 15:00:48;;;;;;;23.40;5.70;;;;;;;;;;4993523;28;20232;-72
2022/01/17 15:03:19;;;;;;;23.47;4.80;;;;;;;;;;4986252;28;20217;-73
2022/01/17 15:05:47;;;;;;;24.13;4.97;;;;;;;;;;4967177;28;20229;-72
2022/01/17 15:08:14;;;;;;;20.03;4.60;;;;;;;;;;4989934;28;20702;-73
2022/01/17 15:10:42;;;;;;;21.30;4.77;;;;;;;;;;4980210;28;20703;-73
2022/01/17 15:13:08;;;;;;;21.07;4.30;;;;;;;;;;4984779;28;20282;-73
2022/01/17 15:15:36;;;;;;;22.77;5.10;;;;;;;;;;4963904;28;20237;-73
2022/01/17 15:18:11;;;;;;;15.40;4.37;;;;;;;;;;4974354;28;20229;-74
2022/01/17 15:20:41;;;;;;;18.03;3.93;;;;;;;;;;4974951;28;20239;-73